createdAt,value
2022-08-06T00:01:01.198Z,88.04
2022-08-06T00:06:02.943Z,88.94
2022-08-06T00:11:04.672Z,89.48
2022-08-06T00:16:30.717Z,89.27
2022-08-06T00:21:41.822Z,89.41
2022-08-06T00:26:51.701Z,90.12
2022-08-06T00:32:06.292Z,89.71
2022-08-06T00:37:18.788Z,89.87
2022-08-06T00:42:21.102Z,90.17
2022-08-06T00:47:41.297Z,91.02
2022-08-06T00:52:47.019Z,91.04
2022-08-06T00:57:49.470Z,90.96
2022-08-06T01:02:53.048Z,91.11
2022-08-06T01:07:55.565Z,91.87
2022-08-06T01:12:57.244Z,91.83
2022-08-06T01:18:05.493Z,92.08
2022-08-06T01:23:19.351Z,92.26
2022-08-06T01:28:28.752Z,92.74
2022-08-06T01:33:46.666Z,92.85
2022-08-06T01:38:59.354Z,92.73
2022-08-06T01:44:06.531Z,93.69
2022-08-06T01:49:26.435Z,93.89
2022-08-06T01:54:31.295Z,93.84
2022-08-06T01:59:34.646Z,94.87
2022-08-06T02:04:40.066Z,94.65
2022-08-06T02:09:42.861Z,95.13
2022-08-06T02:14:56.608Z,95.05
2022-08-06T02:20:11.443Z,95.26
2022-08-06T02:25:22.246Z,95.52
2022-08-06T02:30:35.316Z,95.45
2022-08-06T02:36:20.674Z,95.40
2022-08-06T02:41:32.081Z,95.03
2022-08-06T02:47:03.394Z,95.65
2022-08-06T02:52:11.833Z,95.63
2022-08-06T02:57:48.465Z,95.15
2022-08-06T03:02:56.193Z,94.25
2022-08-06T03:07:57.971Z,94.08
2022-08-06T03:12:59.670Z,93.88
2022-08-06T03:18:05.737Z,94.59
2022-08-06T03:23:09.928Z,95.51
2022-08-06T03:28:12.560Z,95.99
2022-08-06T03:33:42.033Z,96.30
2022-08-06T03:39:02.397Z,97.55
2022-08-06T03:44:05.173Z,98.21
2022-08-06T03:49:10.007Z,97.76
2022-08-06T03:54:15.146Z,98.17
2022-08-06T03:59:38.024Z,98.55
2022-08-06T04:04:51.245Z,98.98
2022-08-06T04:09:59.257Z,98.71
2022-08-06T04:15:07.666Z,98.70
2022-08-06T04:20:12.785Z,98.56
2022-08-06T04:25:14.533Z,99.59
2022-08-06T04:30:16.225Z,99.18
2022-08-06T04:36:05.100Z,98.98
2022-08-06T04:40:41.485Z,98.87
2022-08-06T04:46:18.346Z,99.07
2022-08-06T04:52:36.194Z,99.12
2022-08-06T04:56:48.435Z,98.68
2022-08-06T05:01:57.119Z,98.56
2022-08-06T05:07:19.538Z,99.31
2022-08-06T05:12:33.532Z,99.06
2022-08-06T05:17:38.261Z,99.36
2022-08-06T05:22:54.189Z,99.00
2022-08-06T05:28:09.588Z,98.74
2022-08-06T05:33:16.928Z,97.46
2022-08-06T05:38:21.155Z,97.14
2022-08-06T05:43:58.224Z,97.06
2022-08-06T05:49:57.890Z,96.64
2022-08-06T05:54:52.760Z,96.03
2022-08-06T06:00:01.214Z,94.79
2022-08-06T06:06:03.313Z,94.31
2022-08-06T06:10:26.321Z,94.16
2022-08-06T06:16:01.891Z,94.39
2022-08-06T06:21:03.394Z,93.71
2022-08-06T06:26:37.342Z,92.11
2022-08-06T06:32:07.597Z,91.02
2022-08-06T06:37:40.601Z,91.27
2022-08-06T06:42:57.084Z,90.60
2022-08-06T06:48:18.327Z,90.33
2022-08-06T06:53:20.233Z,88.97
2022-08-06T06:58:47.354Z,86.87
2022-08-06T07:03:49.851Z,87.38
2022-08-06T07:08:52.207Z,85.48
2022-08-06T07:13:58.874Z,85.85
2022-08-06T07:19:01.453Z,84.81
2022-08-06T07:24:33.423Z,84.68
2022-08-06T07:29:49.366Z,85.50
2022-08-06T07:34:47.030Z,84.89
2022-08-06T07:39:48.887Z,83.19
2022-08-06T07:44:56.790Z,82.68
2022-08-06T07:50:00.323Z,82.09
2022-08-06T07:55:03.176Z,80.11
2022-08-06T08:00:06.516Z,79.87
2022-08-06T08:05:39.576Z,79.57
2022-08-06T08:10:43.049Z,78.35
2022-08-06T08:15:46.087Z,78.47
2022-08-06T08:20:53.278Z,77.59
2022-08-06T08:25:59.679Z,77.67
2022-08-06T08:31:11.023Z,76.46
2022-08-06T08:36:30.699Z,74.01
2022-08-06T08:41:48.408Z,74.27
2022-08-06T08:46:57.354Z,73.39
2022-08-06T08:51:59.845Z,69.89
2022-08-06T08:58:36.220Z,70.06
2022-08-06T09:02:28.060Z,69.27
2022-08-06T09:07:35.454Z,70.45
2022-08-06T09:12:44.882Z,65.55
2022-08-06T09:18:11.200Z,66.34
2022-08-06T09:23:12.123Z,64.88
2022-08-06T09:28:42.749Z,65.28
2022-08-06T09:34:19.200Z,62.01
2022-08-06T09:39:59.891Z,60.10
2022-08-06T09:45:15.144Z,59.11
2022-08-06T09:50:38.141Z,59.67
2022-08-06T09:55:41.462Z,58.91
2022-08-06T10:00:46.401Z,56.95
2022-08-06T10:06:06.448Z,56.50
2022-08-06T10:11:12.763Z,57.79
2022-08-06T10:16:18.973Z,58.32
2022-08-06T10:21:26.783Z,57.26
2022-08-06T10:26:33.355Z,55.85
2022-08-06T10:31:36.697Z,57.06
2022-08-06T10:36:50.505Z,54.28
2022-08-06T10:42:01.273Z,56.32
2022-08-06T10:47:05.684Z,53.45
2022-08-06T10:52:08.281Z,51.49
2022-08-06T10:57:13.331Z,52.01
2022-08-06T11:02:34.010Z,52.55
2022-08-06T11:08:09.491Z,54.47
2022-08-06T11:13:37.510Z,50.39
2022-08-06T11:19:02.793Z,50.64
2022-08-06T11:24:09.643Z,51.33
2022-08-06T11:29:12.654Z,49.05
2022-08-06T11:34:34.460Z,47.03
2022-08-06T11:40:14.244Z,46.66
2022-08-06T11:46:19.942Z,47.98
2022-08-06T11:50:39.012Z,49.27
2022-08-06T11:56:05.707Z,49.08
2022-08-06T12:01:33.656Z,49.94
2022-08-06T12:06:33.426Z,48.42
2022-08-06T12:11:37.219Z,43.30
2022-08-06T12:16:44.698Z,42.64
2022-08-06T12:21:56.743Z,43.24
2022-08-06T12:26:59.325Z,42.74
2022-08-06T12:32:01.609Z,40.55
2022-08-06T12:37:03.600Z,36.97
2022-08-06T12:42:05.298Z,37.47
2022-08-06T12:47:13.675Z,37.18
2022-08-06T12:52:20.007Z,35.35
2022-08-06T12:57:59.369Z,35.16
2022-08-06T13:02:54.114Z,35.18
2022-08-06T13:07:57.721Z,35.02
2022-08-06T13:14:15.372Z,34.19
2022-08-06T13:18:40.909Z,37.14
2022-08-06T13:23:53.319Z,34.75
2022-08-06T13:30:31.465Z,34.75
2022-08-06T13:34:30.161Z,36.23
2022-08-06T13:39:32.149Z,37.52
2022-08-06T13:44:44.912Z,36.29
2022-08-06T13:50:00.623Z,35.23
2022-08-06T13:55:07.328Z,35.67
2022-08-06T14:00:11.487Z,35.40
2022-08-06T14:05:23.051Z,33.60
2022-08-06T14:10:29.650Z,31.05
2022-08-06T14:15:42.148Z,30.63
2022-08-06T14:20:44.209Z,29.93
2022-08-06T14:26:00.012Z,29.55
2022-08-06T14:31:08.573Z,30.51
2022-08-06T14:36:10.551Z,28.30
2022-08-06T14:41:51.397Z,29.94
2022-08-06T14:46:52.881Z,29.50
2022-08-06T14:52:19.741Z,30.96
2022-08-06T14:57:16.695Z,29.63
2022-08-06T15:02:18.640Z,29.33
2022-08-06T15:07:35.581Z,29.19
2022-08-06T15:12:51.137Z,30.43
2022-08-06T15:18:14.225Z,31.42
2022-08-06T15:23:23.633Z,33.82
2022-08-06T15:28:33.048Z,34.54
2022-08-06T15:33:34.946Z,34.15
2022-08-06T15:38:38.766Z,35.46
2022-08-06T15:43:44.290Z,35.19
2022-08-06T15:48:47.119Z,35.14
2022-08-06T15:53:58.097Z,35.96
2022-08-06T15:59:01.099Z,35.53
2022-08-06T16:04:02.981Z,34.39
2022-08-06T16:09:06.242Z,32.97
2022-08-06T16:14:11.981Z,34.47
2022-08-06T16:19:20.920Z,32.89
2022-08-06T16:24:23.679Z,31.97
2022-08-06T16:29:28.170Z,32.29
2022-08-06T16:34:36.844Z,34.10
2022-08-06T16:39:38.917Z,34.29
2022-08-06T16:45:02.668Z,34.96
2022-08-06T16:50:19.123Z,35.67
2022-08-06T16:55:34.011Z,35.25
2022-08-06T17:01:00.636Z,35.83
2022-08-06T17:06:00.249Z,35.32
2022-08-06T17:11:02.989Z,34.37
2022-08-06T17:16:29.517Z,33.96
2022-08-06T17:21:58.333Z,34.67
2022-08-06T17:26:53.478Z,35.62
2022-08-06T17:31:59.020Z,35.93
2022-08-06T17:37:03.837Z,36.23
2022-08-06T17:42:26.439Z,36.54
2022-08-06T17:47:51.039Z,36.44
2022-08-06T17:52:50.386Z,37.15
2022-08-06T17:58:33.199Z,37.20
2022-08-06T18:03:14.198Z,37.46
2022-08-06T18:08:36.315Z,38.41
2022-08-06T18:13:52.933Z,40.46
2022-08-06T18:18:56.147Z,41.19
2022-08-06T18:24:00.588Z,41.20
2022-08-06T18:29:06.496Z,42.03
2022-08-06T18:34:16.185Z,42.11
2022-08-06T18:39:23.044Z,43.41
2022-08-06T18:44:27.306Z,44.28
2022-08-06T18:49:38.908Z,45.49
2022-08-06T18:54:56.577Z,46.33
2022-08-06T18:59:59.822Z,47.37
2022-08-06T19:05:01.609Z,48.04
2022-08-06T19:10:04.335Z,48.52
2022-08-06T19:15:19.664Z,49.73
2022-08-06T19:20:30.742Z,51.08
2022-08-06T19:25:41.806Z,52.26
2022-08-06T19:30:54.602Z,53.27
2022-08-06T19:36:11.818Z,54.75
2022-08-06T19:41:19.632Z,55.58
2022-08-06T19:46:56.372Z,57.70
2022-08-06T19:52:04.749Z,58.82
2022-08-06T19:57:09.283Z,59.73
2022-08-06T20:02:16.126Z,62.09
2022-08-06T20:07:24.758Z,63.03
2022-08-06T20:12:32.025Z,64.44
2022-08-06T20:17:49.506Z,65.55
2022-08-06T20:22:52.304Z,67.32
2022-08-06T20:29:07.898Z,67.42
2022-08-06T20:33:23.828Z,66.90
2022-08-06T20:38:40.231Z,67.19
2022-08-06T20:44:06.878Z,67.43
2022-08-06T20:49:10.246Z,68.51
2022-08-06T20:54:17.073Z,69.35
2022-08-06T20:59:19.351Z,70.08
2022-08-06T21:05:15.563Z,70.94
2022-08-06T21:09:45.266Z,71.29
2022-08-06T21:14:47.948Z,72.21
2022-08-06T21:20:09.552Z,72.69
2022-08-06T21:25:14.801Z,73.04
2022-08-06T21:30:29.497Z,73.51
2022-08-06T21:35:34.278Z,73.56
2022-08-06T21:40:36.915Z,72.59
2022-08-06T21:45:58.409Z,71.43
2022-08-06T21:51:00.826Z,70.64
2022-08-06T21:56:37.980Z,70.81
2022-08-06T22:01:24.986Z,70.95
2022-08-06T22:06:47.329Z,70.20
2022-08-06T22:12:37.371Z,70.54
2022-08-06T22:17:59.027Z,69.50
2022-08-06T22:22:39.090Z,71.14
2022-08-06T22:27:42.105Z,71.15
2022-08-06T22:32:56.173Z,70.17
2022-08-06T22:38:19.416Z,70.19
2022-08-06T22:43:28.003Z,70.93
2022-08-06T22:48:43.805Z,72.09
2022-08-06T22:54:28.689Z,73.01
2022-08-06T22:59:31.790Z,73.58
2022-08-06T23:04:33.830Z,74.19
2022-08-06T23:09:35.888Z,75.34
2022-08-06T23:14:38.943Z,76.55
2022-08-06T23:19:56.308Z,77.12
2022-08-06T23:25:59.362Z,77.91
2022-08-06T23:30:21.999Z,78.67
2022-08-06T23:35:35.830Z,79.11
2022-08-06T23:40:38.828Z,78.32
2022-08-06T23:45:41.505Z,77.34
2022-08-06T23:50:53.280Z,79.26
2022-08-06T23:55:59.848Z,79.80
